Correa, Argentina
Current Conditions -  °F | °C
As of 9:00 PM on Friday 24 Oct 2014 (Local Time) from SAAR Reporting Station
Clear Clear  
Wind Chill: 79°   Ceiling: Unl
Heat Index: 81°   Visibility: 6mi
Dew Point: 66°   Wind: 7mph
Humidity: 65%   Direction: 90°E
Pressure: 29.88"   Gusts: NA
Location:  32.85°S, 61.25°W
Report Text: SAAR 250000Z 09006KT CAVOK 26/19 Q1012
Loading
Personal Weather Stations






























Interactive Weather Map New forecast layout! Learn more

10-Day Weather Forecast

Advertisements
Track Severe Weather on mobile